createdAt,value
2018-01-15T00:01:57.325Z,101693.77
2018-01-15T00:04:25.637Z,101691.27
2018-01-15T00:06:54.706Z,101696.70
2018-01-15T00:09:23.004Z,101694.09
2018-01-15T00:11:51.351Z,101688.13
2018-01-15T00:14:19.740Z,101693.41
2018-01-15T00:16:48.080Z,101693.69
2018-01-15T00:19:17.151Z,101683.09
2018-01-15T00:21:45.459Z,101674.98
2018-01-15T00:24:14.007Z,101669.05
2018-01-15T00:26:42.341Z,101672.61
2018-01-15T00:29:10.667Z,101663.83
2018-01-15T00:31:38.981Z,101662.02
2018-01-15T00:34:08.073Z,101657.08
2018-01-15T00:36:36.395Z,101651.14
2018-01-15T00:39:04.695Z,101649.82
2018-01-15T00:41:33.005Z,101647.71
2018-01-15T00:44:01.301Z,101647.64
2018-01-15T00:46:30.487Z,101638.86
2018-01-15T00:48:58.829Z,101624.28
2018-01-15T00:51:27.155Z,101621.36
2018-01-15T00:53:56.253Z,101617.95
2018-01-15T00:56:24.565Z,101616.36
2018-01-15T00:58:53.645Z,101611.48
2018-01-15T01:01:21.976Z,101596.27
2018-01-15T01:03:50.275Z,101600.92
2018-01-15T01:06:18.597Z,101607.78
2018-01-15T01:08:47.672Z,101602.17
2018-01-15T01:11:15.971Z,101597.30
2018-01-15T01:13:45.035Z,101590.75
2018-01-15T01:16:13.365Z,101598.48
2018-01-15T01:18:42.553Z,101591.94
2018-01-15T01:21:10.839Z,101590.95
2018-01-15T01:23:39.921Z,101579.37
2018-01-15T01:26:08.227Z,101576.72
2018-01-15T01:28:37.291Z,101574.63
2018-01-15T01:31:05.671Z,101584.25
2018-01-15T01:33:33.983Z,101587.28
2018-01-15T01:36:03.867Z,101581.00
2018-01-15T01:38:32.202Z,101579.83
2018-01-15T01:41:00.507Z,101571.47
2018-01-15T01:43:28.839Z,101569.34
2018-01-15T01:45:57.240Z,101559.73
2018-01-15T01:48:26.369Z,101552.69
2018-01-15T01:50:54.692Z,101550.45
2018-01-15T01:53:22.987Z,101547.31
2018-01-15T01:55:51.325Z,101544.73
2018-01-15T01:58:19.625Z,101546.97
2018-01-15T02:00:47.922Z,101539.25
2018-01-15T02:03:16.255Z,101525.28
2018-01-15T02:05:44.564Z,101507.97
2018-01-15T02:08:12.887Z,101495.48
2018-01-15T02:10:41.954Z,101497.22
2018-01-15T02:13:10.263Z,101486.09
2018-01-15T02:15:39.353Z,101483.21
2018-01-15T02:18:08.443Z,101480.06
2018-01-15T02:20:36.769Z,101476.70
2018-01-15T02:23:05.155Z,101464.53
2018-01-15T02:25:33.487Z,101458.33
2018-01-15T02:28:01.811Z,101440.34
2018-01-15T02:30:30.125Z,101437.27
2018-01-15T02:32:58.443Z,101440.19
2018-01-15T02:35:27.535Z,101439.46
2018-01-15T02:37:55.871Z,101441.70
2018-01-15T02:40:24.184Z,101432.19
2018-01-15T02:42:52.494Z,101429.53
2018-01-15T02:45:20.799Z,101427.95
2018-01-15T02:47:49.151Z,101422.16
2018-01-15T02:50:18.227Z,101423.97
2018-01-15T02:52:46.559Z,101414.61
2018-01-15T02:55:14.862Z,101412.38
2018-01-15T02:57:43.166Z,101409.36
2018-01-15T03:00:11.478Z,101416.56
2018-01-15T03:02:39.778Z,101415.84
2018-01-15T03:05:08.844Z,101414.33
2018-01-15T03:07:37.168Z,101407.13
2018-01-15T03:10:05.499Z,101411.03
2018-01-15T03:12:33.802Z,101405.73
2018-01-15T03:15:02.114Z,101404.06
2018-01-15T03:17:30.491Z,101405.73
2018-01-15T03:19:58.806Z,101392.63
2018-01-15T03:22:27.170Z,101397.93
2018-01-15T03:24:55.488Z,101397.70
2018-01-15T03:27:23.830Z,101388.19
2018-01-15T03:29:52.160Z,101382.73
2018-01-15T03:32:20.483Z,101372.20
2018-01-15T03:34:48.800Z,101352.66
2018-01-15T03:37:17.116Z,101353.75
2018-01-15T03:39:45.411Z,101345.20
2018-01-15T03:42:14.531Z,101335.25
2018-01-15T03:44:42.842Z,101329.34
2018-01-15T03:47:11.164Z,101323.39
2018-01-15T03:49:39.484Z,101319.18
2018-01-15T03:52:07.796Z,101301.45
2018-01-15T03:54:36.098Z,101298.73
2018-01-15T03:57:04.427Z,101284.80
2018-01-15T03:59:32.736Z,101280.25
2018-01-15T04:02:01.036Z,101273.70
2018-01-15T04:04:30.154Z,101275.62
2018-01-15T04:06:58.481Z,101271.88
2018-01-15T04:09:26.804Z,101271.72
2018-01-15T04:11:55.112Z,101267.67
2018-01-15T04:14:24.180Z,101265.02
2018-01-15T04:16:52.495Z,101265.84
2018-01-15T04:19:21.895Z,101254.83
2018-01-15T04:21:50.984Z,101248.28
2018-01-15T04:24:19.280Z,101243.22
2018-01-15T04:26:48.422Z,101237.08
2018-01-15T04:29:17.388Z,101221.35
2018-01-15T04:31:46.496Z,101226.98
2018-01-15T04:34:14.808Z,101225.57
2018-01-15T04:36:43.139Z,101223.34
2018-01-15T04:39:11.451Z,101208.26
2018-01-15T04:41:39.760Z,101216.55
2018-01-15T04:44:08.069Z,101208.77
2018-01-15T04:46:36.390Z,101203.47
2018-01-15T04:49:04.706Z,101198.82
2018-01-15T04:51:33.010Z,101188.38
2018-01-15T04:54:02.161Z,101178.45
2018-01-15T04:56:30.478Z,101182.00
2018-01-15T04:58:58.773Z,101172.73
2018-01-15T05:01:27.298Z,101159.30
2018-01-15T05:03:56.370Z,101155.82
2018-01-15T05:06:24.712Z,101143.97
2018-01-15T05:08:53.005Z,101145.37
2018-01-15T05:11:21.307Z,101145.20
2018-01-15T05:13:49.634Z,101138.58
2018-01-15T05:16:17.928Z,101135.59
2018-01-15T05:18:46.247Z,101139.69
2018-01-15T05:21:14.588Z,101138.52
2018-01-15T05:23:42.877Z,101136.20
2018-01-15T05:26:11.186Z,101123.17
2018-01-15T05:28:39.491Z,101114.56
2018-01-15T05:31:07.797Z,101106.20
2018-01-15T05:33:36.095Z,101099.48
2018-01-15T05:36:04.419Z,101103.80
2018-01-15T05:38:32.711Z,101093.61
2018-01-15T05:41:01.788Z,101091.70
2018-01-15T05:43:30.112Z,101093.78
2018-01-15T05:45:59.165Z,101089.39
2018-01-15T05:48:27.477Z,101081.27
2018-01-15T05:50:55.795Z,101080.61
2018-01-15T05:53:24.097Z,101079.36
2018-01-15T05:55:52.388Z,101082.09
2018-01-15T05:58:20.682Z,101072.48
2018-01-15T06:00:48.995Z,101068.27
2018-01-15T06:03:18.716Z,101064.13
2018-01-15T06:05:47.788Z,101054.18
2018-01-15T06:08:16.090Z,101053.10
2018-01-15T06:10:45.183Z,101049.13
2018-01-15T06:13:14.250Z,101047.94
2018-01-15T06:15:42.567Z,101041.09
2018-01-15T06:18:11.654Z,101036.20
2018-01-15T06:20:39.966Z,101027.09
2018-01-15T06:23:08.273Z,101021.05
2018-01-15T06:25:36.590Z,101015.08
2018-01-15T06:28:04.947Z,101014.75
2018-01-15T06:30:33.276Z,101019.39
2018-01-15T06:33:02.337Z,101016.11
2018-01-15T06:35:30.692Z,101012.79
2018-01-15T06:37:59.016Z,101003.44
2018-01-15T06:40:27.327Z,100996.56
2018-01-15T06:42:56.398Z,100996.64
2018-01-15T06:45:24.720Z,100994.70
2018-01-15T06:47:53.065Z,100988.69
2018-01-15T06:50:21.388Z,100990.27
2018-01-15T06:52:49.700Z,100980.82
2018-01-15T06:55:18.000Z,100968.98
2018-01-15T06:57:46.326Z,100959.78
2018-01-15T07:00:14.634Z,100963.84
2018-01-15T07:02:42.964Z,100975.69
2018-01-15T07:05:11.284Z,100957.05
2018-01-15T07:07:39.596Z,100959.13
2018-01-15T07:10:07.899Z,100958.84
2018-01-15T07:12:36.222Z,100958.84
2018-01-15T07:15:04.576Z,100950.72
2018-01-15T07:17:32.852Z,100945.92
2018-01-15T07:20:01.164Z,100945.63
2018-01-15T07:22:29.466Z,100942.89
2018-01-15T07:24:57.776Z,100956.64
2018-01-15T07:27:26.084Z,100950.54
2018-01-15T07:29:55.638Z,100938.28
2018-01-15T07:32:23.940Z,100936.96
2018-01-15T07:34:52.236Z,100934.56
2018-01-15T07:37:20.554Z,100936.05
2018-01-15T07:39:49.620Z,100926.72
2018-01-15T07:42:17.948Z,100920.02
2018-01-15T07:44:46.262Z,100921.01
2018-01-15T07:47:14.566Z,100920.27
2018-01-15T07:49:42.870Z,100906.36
2018-01-15T07:52:11.972Z,100905.94
2018-01-15T07:54:41.030Z,100890.09
2018-01-15T07:57:09.375Z,100895.68
2018-01-15T07:59:37.678Z,100902.47
2018-01-15T08:02:06.000Z,100891.37
2018-01-15T08:04:35.106Z,100898.08
2018-01-15T08:07:03.419Z,100871.25
2018-01-15T08:09:31.701Z,100863.06
2018-01-15T08:11:59.998Z,100878.95
2018-01-15T08:14:28.326Z,100868.03
2018-01-15T08:16:56.654Z,100865.63
2018-01-15T08:19:25.748Z,100841.88
2018-01-15T08:21:54.068Z,100849.65
2018-01-15T08:24:22.370Z,100850.52
2018-01-15T08:26:50.691Z,100847.95
2018-01-15T08:29:19.000Z,100819.97
2018-01-15T08:31:47.330Z,100814.25
2018-01-15T08:34:16.486Z,100811.17
2018-01-15T08:36:44.791Z,100789.45
2018-01-15T08:39:13.078Z,100773.67
2018-01-15T08:41:41.400Z,100774.54
2018-01-15T08:44:09.702Z,100764.08
2018-01-15T08:46:38.784Z,100750.01
2018-01-15T08:49:07.284Z,100747.72
2018-01-15T08:51:35.604Z,100746.80
2018-01-15T08:54:03.940Z,100709.43
2018-01-15T08:56:32.267Z,100744.20
2018-01-15T08:59:00.568Z,100749.63
2018-01-15T09:01:29.638Z,100737.27
2018-01-15T09:03:57.942Z,100735.11
2018-01-15T09:06:27.024Z,100729.64
2018-01-15T09:08:55.346Z,100701.72
2018-01-15T09:11:23.665Z,100703.50
2018-01-15T09:13:52.049Z,100713.53
2018-01-15T09:16:20.377Z,100703.11
2018-01-15T09:18:49.491Z,100698.98
2018-01-15T09:21:17.806Z,100690.77
2018-01-15T09:23:46.088Z,100698.39
2018-01-15T09:26:14.402Z,100684.91
2018-01-15T09:28:42.718Z,100684.80
2018-01-15T09:31:11.080Z,100683.62
2018-01-15T09:33:40.158Z,100664.91
2018-01-15T09:36:08.462Z,100650.12
2018-01-15T09:38:37.538Z,100655.30
2018-01-15T09:41:05.850Z,100637.77
2018-01-15T09:43:34.923Z,100635.02
2018-01-15T09:46:03.236Z,100625.77
2018-01-15T09:48:32.306Z,100621.02
2018-01-15T09:51:00.622Z,100619.13
2018-01-15T09:53:28.930Z,100620.65
2018-01-15T09:55:57.247Z,100607.79
2018-01-15T09:58:25.568Z,100598.94
2018-01-15T10:00:53.897Z,100594.36
2018-01-15T10:03:22.211Z,100599.39
2018-01-15T10:05:51.309Z,100586.08
2018-01-15T10:08:20.371Z,100574.18
2018-01-15T10:10:48.693Z,100572.34
2018-01-15T10:13:17.757Z,100571.11
2018-01-15T10:15:46.089Z,100561.27
2018-01-15T10:18:14.388Z,100558.94
2018-01-15T10:20:42.691Z,100538.71
2018-01-15T10:23:11.004Z,100523.56
2018-01-15T10:25:39.323Z,100511.03
2018-01-15T10:28:07.695Z,100497.57
2018-01-15T10:30:36.063Z,100490.98
2018-01-15T10:33:05.137Z,100466.82
2018-01-15T10:35:33.452Z,100457.34
2018-01-15T10:38:02.543Z,100441.36
2018-01-15T10:40:31.617Z,100425.06
2018-01-15T10:42:59.924Z,100423.72
2018-01-15T10:45:29.011Z,100419.67
2018-01-15T10:47:57.329Z,100406.55
2018-01-15T10:50:25.635Z,100403.68
2018-01-15T10:52:53.939Z,100383.48
2018-01-15T10:55:22.256Z,100375.60
2018-01-15T10:57:50.706Z,100371.30
2018-01-15T11:00:19.041Z,100364.98
2018-01-15T11:02:47.395Z,100357.08
2018-01-15T11:05:15.689Z,100351.54
2018-01-15T11:07:44.752Z,100335.25
2018-01-15T11:10:13.078Z,100322.38
2018-01-15T11:12:41.387Z,100317.29
2018-01-15T11:15:09.739Z,100308.59
2018-01-15T11:17:38.048Z,100304.39
2018-01-15T11:20:06.367Z,100282.33
2018-01-15T11:22:34.697Z,100290.61
2018-01-15T11:25:03.014Z,100275.69
2018-01-15T11:27:31.350Z,100253.59
2018-01-15T11:29:59.644Z,100254.77
2018-01-15T11:32:27.944Z,100236.66
2018-01-15T11:34:56.247Z,100216.44
2018-01-15T11:37:24.542Z,100216.94
2018-01-15T11:39:52.964Z,100206.83
2018-01-15T11:42:21.282Z,100196.64
2018-01-15T11:44:49.604Z,100190.90
2018-01-15T11:47:18.680Z,100181.80
2018-01-15T11:49:46.964Z,100182.93
2018-01-15T11:52:15.270Z,100162.53
2018-01-15T11:54:44.335Z,100147.31
2018-01-15T11:57:12.651Z,100138.75
2018-01-15T11:59:41.730Z,100121.69
2018-01-15T12:02:10.128Z,100123.62
2018-01-15T12:04:39.237Z,100111.75
2018-01-15T12:07:08.405Z,100106.83
2018-01-15T12:09:36.790Z,100079.18
2018-01-15T12:12:05.113Z,100073.44
2018-01-15T12:14:33.431Z,100060.87
2018-01-15T12:17:01.757Z,100054.73
2018-01-15T12:19:30.863Z,100056.27
2018-01-15T12:21:59.184Z,100039.91
2018-01-15T12:24:27.486Z,100045.31
2018-01-15T12:26:55.788Z,100034.20
2018-01-15T12:29:24.101Z,100037.78
2018-01-15T12:31:52.418Z,100030.64
2018-01-15T12:34:20.718Z,100024.42
2018-01-15T12:36:49.038Z,100003.59
2018-01-15T12:39:17.355Z,99983.28
2018-01-15T12:41:45.636Z,99970.84
2018-01-15T12:44:14.015Z,99963.97
2018-01-15T12:46:42.985Z,99951.12
2018-01-15T12:49:11.312Z,99944.08
2018-01-15T12:51:39.621Z,99914.47
2018-01-15T12:54:07.924Z,99906.80
2018-01-15T12:56:37.000Z,99908.33
2018-01-15T12:59:05.301Z,99892.81
2018-01-15T13:01:34.621Z,99874.74
2018-01-15T13:04:02.926Z,99884.13
2018-01-15T13:06:49.033Z,99865.86
2018-01-15T13:09:17.357Z,99862.17
2018-01-15T13:11:46.427Z,99855.33
2018-01-15T13:14:15.100Z,99836.77
2018-01-15T13:16:43.440Z,99843.48
2018-01-15T13:19:11.763Z,99829.62
2018-01-15T13:21:40.087Z,99815.82
2018-01-15T13:24:09.726Z,99795.63
2018-01-15T13:26:38.033Z,99803.61
2018-01-15T13:29:06.325Z,99806.05
2018-01-15T13:31:34.647Z,99794.20
2018-01-15T13:34:03.705Z,99796.45
2018-01-15T13:36:32.014Z,99784.11
2018-01-15T13:39:01.149Z,99782.16
2018-01-15T13:41:29.460Z,99753.08
2018-01-15T13:43:57.745Z,99743.68
2018-01-15T13:46:26.035Z,99745.62
2018-01-15T13:48:54.330Z,99736.34
2018-01-15T13:51:22.639Z,99727.77
2018-01-15T13:53:51.778Z,99716.44
2018-01-15T13:56:20.064Z,99724.09
2018-01-15T13:58:48.373Z,99703.59
2018-01-15T14:01:16.671Z,99704.27
2018-01-15T14:03:45.773Z,99692.33
2018-01-15T14:06:14.859Z,99684.17
2018-01-15T14:08:43.179Z,99673.35
2018-01-15T14:11:11.486Z,99682.64
2018-01-15T14:13:39.883Z,99654.47
2018-01-15T14:16:08.193Z,99634.46
2018-01-15T14:18:37.281Z,99637.63
2018-01-15T14:21:05.581Z,99635.18
2018-01-15T14:23:34.660Z,99629.56
2018-01-15T14:26:02.971Z,99618.30
2018-01-15T14:28:31.297Z,99603.39
2018-01-15T14:30:59.592Z,99602.88
2018-01-15T14:33:27.924Z,99595.53
2018-01-15T14:35:56.233Z,99599.20
2018-01-15T14:38:24.533Z,99586.73
2018-01-15T14:40:52.850Z,99574.08
2018-01-15T14:43:21.942Z,99589.16
2018-01-15T14:45:50.313Z,99571.02
2018-01-15T14:48:18.609Z,99561.44
2018-01-15T14:50:47.693Z,99558.17
2018-01-15T14:53:16.029Z,99557.86
2018-01-15T14:55:44.365Z,99549.59
2018-01-15T14:58:14.284Z,99538.05
2018-01-15T15:00:42.635Z,99532.73
2018-01-15T15:03:10.930Z,99519.05
2018-01-15T15:05:39.345Z,99517.42
2018-01-15T15:08:08.432Z,99502.41
2018-01-15T15:10:36.807Z,99497.91
2018-01-15T15:13:05.175Z,99494.70
2018-01-15T15:15:33.468Z,99478.06
2018-01-15T15:18:01.796Z,99466.78
2018-01-15T15:20:30.116Z,99477.70
2018-01-15T15:22:58.470Z,99453.10
2018-01-15T15:25:26.781Z,99445.44
2018-01-15T15:27:55.078Z,99420.83
2018-01-15T15:30:23.382Z,99435.70
2018-01-15T15:32:52.511Z,99432.37
2018-01-15T15:35:20.805Z,99426.60
2018-01-15T15:37:49.163Z,99420.18
2018-01-15T15:40:17.468Z,99412.78
2018-01-15T15:42:45.764Z,99415.22
2018-01-15T15:45:14.048Z,99386.13
2018-01-15T15:47:42.357Z,99394.92
2018-01-15T15:50:10.689Z,99371.74
2018-01-15T15:52:39.084Z,99372.55
2018-01-15T15:55:07.413Z,99370.22
2018-01-15T15:57:35.700Z,99363.17
2018-01-15T16:00:04.808Z,99361.66
2018-01-15T16:02:33.117Z,99359.60
2018-01-15T16:05:01.431Z,99346.95
2018-01-15T16:07:29.743Z,99329.41
2018-01-15T16:09:58.819Z,99311.66
2018-01-15T16:12:27.137Z,99314.31
2018-01-15T16:14:55.442Z,99299.52
2018-01-15T16:17:23.771Z,99291.50
2018-01-15T16:19:52.231Z,99285.92
2018-01-15T16:22:33.067Z,99301.64
2018-01-15T16:25:02.985Z,99275.84
2018-01-15T16:27:31.293Z,99272.69
2018-01-15T16:29:59.601Z,99266.20
2018-01-15T16:32:27.904Z,99242.94
2018-01-15T16:34:56.984Z,99234.89
2018-01-15T16:37:25.287Z,99243.47
2018-01-15T16:39:54.422Z,99210.42
2018-01-15T16:42:22.736Z,99225.33
2018-01-15T16:44:51.104Z,99188.73
2018-01-15T16:47:19.378Z,99182.16
2018-01-15T16:49:47.677Z,99185.21
2018-01-15T16:52:16.028Z,99168.70
2018-01-15T16:54:44.332Z,99154.24
2018-01-15T16:57:12.634Z,99168.72
2018-01-15T16:59:41.018Z,99156.48
2018-01-15T17:02:09.291Z,99134.05
2018-01-15T17:04:37.610Z,99151.78
2018-01-15T17:07:06.686Z,99126.88
2018-01-15T17:09:34.998Z,99130.86
2018-01-15T17:12:03.313Z,99123.50
2018-01-15T17:14:32.098Z,99126.66
2018-01-15T17:17:01.130Z,99122.17
2018-01-15T17:19:29.455Z,99105.66
2018-01-15T17:21:57.753Z,99109.64
2018-01-15T17:24:26.058Z,99105.96
2018-01-15T17:26:54.383Z,99105.64
2018-01-15T17:29:23.462Z,99090.58
2018-01-15T17:31:51.760Z,99096.27
2018-01-15T17:34:20.832Z,99096.05
2018-01-15T17:36:49.116Z,99083.38
2018-01-15T17:39:17.403Z,99066.14
2018-01-15T17:41:45.742Z,99058.77
2018-01-15T17:44:14.144Z,99065.59
2018-01-15T17:46:42.476Z,99052.55
2018-01-15T17:49:11.554Z,99041.39
2018-01-15T17:51:41.261Z,99036.45
2018-01-15T17:54:09.657Z,99034.55
2018-01-15T17:56:37.973Z,99036.47
2018-01-15T17:59:06.283Z,99030.76
2018-01-15T18:01:34.622Z,99015.42
2018-01-15T18:04:03.752Z,98994.27
2018-01-15T18:06:32.066Z,98986.56
2018-01-15T18:09:00.379Z,98992.09
2018-01-15T18:11:29.451Z,98990.09
2018-01-15T18:13:57.771Z,98991.20
2018-01-15T18:16:26.070Z,98996.52
2018-01-15T18:18:54.829Z,98995.91
2018-01-15T18:21:24.713Z,98979.59
2018-01-15T18:23:53.029Z,98974.20
2018-01-15T18:26:22.126Z,98961.62
2018-01-15T18:28:51.212Z,98967.41
2018-01-15T18:31:19.529Z,98968.39
2018-01-15T18:33:47.830Z,98973.66
2018-01-15T18:36:16.151Z,98969.70
2018-01-15T18:38:44.510Z,98977.98
2018-01-15T18:41:13.600Z,98984.98
2018-01-15T18:43:41.920Z,98970.94
2018-01-15T18:46:11.918Z,98970.02
2018-01-15T18:48:40.265Z,98965.52
2018-01-15T18:51:08.856Z,98964.12
2018-01-15T18:53:37.165Z,98987.99
2018-01-15T18:56:05.468Z,99007.68
2018-01-15T18:58:34.536Z,98995.00
2018-01-15T19:01:02.861Z,99006.11
2018-01-15T19:03:32.035Z,99009.64
2018-01-15T19:06:00.351Z,99004.38
2018-01-15T19:08:29.396Z,99015.78
2018-01-15T19:10:57.723Z,99028.91
2018-01-15T19:13:26.865Z,99028.99
2018-01-15T19:15:55.425Z,99032.02
2018-01-15T19:18:24.481Z,99038.80
2018-01-15T19:20:53.168Z,99046.06
2018-01-15T19:23:21.492Z,99044.67
2018-01-15T19:25:50.555Z,99046.30
2018-01-15T19:28:19.423Z,99041.28
2018-01-15T19:30:47.871Z,99055.46
2018-01-15T19:33:16.933Z,99044.23
2018-01-15T19:35:45.660Z,99048.80
2018-01-15T19:38:25.469Z,99042.96
2018-01-15T19:40:54.765Z,99054.48
2018-01-15T19:43:28.523Z,99053.26
2018-01-15T19:46:02.413Z,99054.53
2018-01-15T19:48:40.712Z,99058.30
2018-01-15T19:51:14.718Z,99061.47
2018-01-15T19:53:48.656Z,99063.50
2018-01-15T19:59:24.907Z,99080.11
2018-01-15T20:01:58.821Z,99080.80
2018-01-15T20:04:34.194Z,99079.59
2018-01-15T20:07:07.928Z,99082.31
2018-01-15T20:09:41.678Z,99069.34
2018-01-15T20:12:10.765Z,99095.55
2018-01-15T20:14:39.125Z,99102.16
2018-01-15T20:17:07.427Z,99105.68
2018-01-15T20:19:35.725Z,99103.89
2018-01-15T20:22:04.809Z,99109.33
2018-01-15T20:24:33.188Z,99108.12
2018-01-15T20:27:01.534Z,99121.24
2018-01-15T20:29:30.066Z,99125.38
2018-01-15T20:31:58.485Z,99130.98
2018-01-15T20:34:26.796Z,99130.23
2018-01-15T20:36:55.256Z,99128.20
2018-01-15T20:39:23.576Z,99116.53
2018-01-15T20:41:51.874Z,99128.15
2018-01-15T20:44:20.152Z,99139.15
2018-01-15T20:46:48.469Z,99143.82
2018-01-15T20:49:16.800Z,99140.34
2018-01-15T20:51:45.695Z,99143.59
2018-01-15T20:54:14.007Z,99149.27
2018-01-15T20:56:43.077Z,99138.52
2018-01-15T20:59:11.410Z,99151.50
2018-01-15T21:01:39.716Z,99160.23
2018-01-15T21:04:08.026Z,99148.94
2018-01-15T21:06:36.323Z,99150.80
2018-01-15T21:09:04.630Z,99154.98
2018-01-15T21:11:32.946Z,99148.41
2018-01-15T21:14:01.240Z,99149.70
2018-01-15T21:16:29.610Z,99160.38
2018-01-15T21:18:58.621Z,99146.87
2018-01-15T21:21:26.932Z,99147.97
2018-01-15T21:23:56.589Z,99138.86
2018-01-15T21:26:24.929Z,99134.63
2018-01-15T21:28:54.015Z,99142.59
2018-01-15T21:31:22.341Z,99148.83
2018-01-15T21:33:50.693Z,99140.75
2018-01-15T21:36:19.747Z,99140.78
2018-01-15T21:38:48.063Z,99141.08
2018-01-15T21:41:16.381Z,99139.97
2018-01-15T21:43:44.661Z,99150.71
2018-01-15T21:46:12.989Z,99135.51
2018-01-15T21:48:41.329Z,99151.92
2018-01-15T21:51:09.619Z,99151.08
2018-01-15T21:53:37.911Z,99160.56
2018-01-15T21:56:06.214Z,99152.22
2018-01-15T21:58:34.525Z,99146.66
2018-01-15T22:01:03.606Z,99150.41
2018-01-15T22:03:31.926Z,99138.75
2018-01-15T22:06:00.210Z,99142.22
2018-01-15T22:08:28.513Z,99141.81
2018-01-15T22:10:56.795Z,99160.78
2018-01-15T22:13:25.087Z,99156.69
2018-01-15T22:15:53.409Z,99173.80
2018-01-15T22:18:22.513Z,99180.74
2018-01-15T22:20:51.587Z,99180.74
2018-01-15T22:23:19.883Z,99188.34
2018-01-15T22:25:48.180Z,99187.88
2018-01-15T22:28:17.239Z,99193.89
2018-01-15T22:30:45.541Z,99201.97
2018-01-15T22:33:13.840Z,99189.80
2018-01-15T22:35:42.914Z,99200.64
2018-01-15T22:38:11.259Z,99193.12
2018-01-15T22:40:39.566Z,99207.41
2018-01-15T22:43:08.645Z,99210.02
2018-01-15T22:45:36.972Z,99213.94
2018-01-15T22:48:05.274Z,99218.52
2018-01-15T22:50:33.581Z,99218.84
2018-01-15T22:53:01.867Z,99234.46
2018-01-15T22:55:30.175Z,99225.94
2018-01-15T22:57:59.247Z,99228.56
2018-01-15T23:00:27.539Z,99239.52
2018-01-15T23:02:55.830Z,99236.45
2018-01-15T23:05:24.155Z,99248.64
2018-01-15T23:07:53.214Z,99248.34
2018-01-15T23:10:21.524Z,99258.39
2018-01-15T23:12:50.597Z,99257.28
2018-01-15T23:15:18.903Z,99265.66
2018-01-15T23:17:47.201Z,99248.23
2018-01-15T23:20:15.512Z,99259.16
2018-01-15T23:22:43.805Z,99261.16
2018-01-15T23:25:12.108Z,99271.17
2018-01-15T23:27:40.396Z,99268.80
2018-01-15T23:30:08.748Z,99276.00
2018-01-15T23:32:37.042Z,99268.02
2018-01-15T23:35:05.361Z,99267.48
2018-01-15T23:37:34.460Z,99281.77
2018-01-15T23:40:03.519Z,99281.14
2018-01-15T23:42:31.855Z,99283.03
2018-01-15T23:45:00.148Z,99285.54
2018-01-15T23:47:28.483Z,99296.36
2018-01-15T23:49:56.781Z,99299.54
2018-01-15T23:52:25.864Z,99292.37
2018-01-15T23:54:54.180Z,99296.20
2018-01-15T23:57:22.518Z,99289.78
2018-01-15T23:59:50.817Z,99277.47
